sensor_id;sensor_type;location;lat;lon;timestamp;P1;durP1;ratioP1;P2;durP2;ratioP2
51082;SDS011;37131;42.694;23.350;2022-09-09T00:04:10;249.75;;;64.07;;
51082;SDS011;37131;42.694;23.350;2022-09-09T00:06:44;250.48;;;63.50;;
51082;SDS011;37131;42.694;23.350;2022-09-09T00:09:16;249.55;;;62.75;;
51082;SDS011;37131;42.694;23.350;2022-09-09T00:11:48;251.20;;;63.22;;
51082;SDS011;37131;42.694;23.350;2022-09-09T00:20:21;250.73;;;63.05;;
51082;SDS011;37131;42.694;23.350;2022-09-09T00:23:00;254.95;;;62.97;;
51082;SDS011;37131;42.694;23.350;2022-09-09T00:25:36;250.75;;;62.55;;
51082;SDS011;37131;42.694;23.350;2022-09-09T00:28:41;250.35;;;62.00;;
51082;SDS011;37131;42.694;23.350;2022-09-09T00:31:08;249.73;;;62.13;;
51082;SDS011;37131;42.694;23.350;2022-09-09T00:33:37;253.57;;;61.88;;
51082;SDS011;37131;42.694;23.350;2022-09-09T00:36:04;252.40;;;63.70;;
51082;SDS011;37131;42.694;23.350;2022-09-09T00:38:42;252.05;;;62.53;;
51082;SDS011;37131;42.694;23.350;2022-09-09T00:57:33;248.82;;;61.10;;
51082;SDS011;37131;42.694;23.350;2022-09-09T01:00:16;252.13;;;62.78;;
51082;SDS011;37131;42.694;23.350;2022-09-09T01:05:20;251.25;;;61.30;;
51082;SDS011;37131;42.694;23.350;2022-09-09T01:07:54;253.35;;;62.05;;
51082;SDS011;37131;42.694;23.350;2022-09-09T01:10:40;249.68;;;61.20;;
51082;SDS011;37131;42.694;23.350;2022-09-09T01:13:47;250.38;;;59.97;;
51082;SDS011;37131;42.694;23.350;2022-09-09T01:16:07;252.57;;;61.33;;
51082;SDS011;37131;42.694;23.350;2022-09-09T01:18:38;250.98;;;61.42;;
51082;SDS011;37131;42.694;23.350;2022-09-09T01:26:51;251.05;;;60.30;;
51082;SDS011;37131;42.694;23.350;2022-09-09T01:29:20;249.43;;;61.28;;
51082;SDS011;37131;42.694;23.350;2022-09-09T01:31:57;249.73;;;60.42;;
51082;SDS011;37131;42.694;23.350;2022-09-09T01:34:25;252.60;;;61.67;;
51082;SDS011;37131;42.694;23.350;2022-09-09T01:39:30;251.15;;;60.13;;
51082;SDS011;37131;42.694;23.350;2022-09-09T01:41:56;252.65;;;60.97;;
51082;SDS011;37131;42.694;23.350;2022-09-09T01:44:22;251.25;;;60.33;;
51082;SDS011;37131;42.694;23.350;2022-09-09T01:46:49;251.52;;;60.38;;
51082;SDS011;37131;42.694;23.350;2022-09-09T01:49:15;256.05;;;62.70;;
51082;SDS011;37131;42.694;23.350;2022-09-09T01:51:42;251.43;;;59.35;;
51082;SDS011;37131;42.694;23.350;2022-09-09T01:54:08;250.85;;;59.80;;
51082;SDS011;37131;42.694;23.350;2022-09-09T02:04:41;250.05;;;58.80;;
51082;SDS011;37131;42.694;23.350;2022-09-09T02:07:19;254.60;;;60.50;;
51082;SDS011;37131;42.694;23.350;2022-09-09T02:12:53;258.08;;;59.33;;
51082;SDS011;37131;42.694;23.350;2022-09-09T02:15:33;252.57;;;60.20;;
51082;SDS011;37131;42.694;23.350;2022-09-09T02:18:07;251.45;;;59.83;;
51082;SDS011;37131;42.694;23.350;2022-09-09T02:20:37;253.20;;;60.33;;
51082;SDS011;37131;42.694;23.350;2022-09-09T02:23:04;251.05;;;59.25;;
51082;SDS011;37131;42.694;23.350;2022-09-09T02:25:32;251.50;;;60.13;;
51082;SDS011;37131;42.694;23.350;2022-09-09T02:28:01;252.15;;;60.13;;
51082;SDS011;37131;42.694;23.350;2022-09-09T02:30:30;250.68;;;59.33;;
51082;SDS011;37131;42.694;23.350;2022-09-09T02:32:59;250.45;;;59.63;;
51082;SDS011;37131;42.694;23.350;2022-09-09T02:35:28;250.68;;;59.63;;
51082;SDS011;37131;42.694;23.350;2022-09-09T02:37:59;251.52;;;59.60;;
51082;SDS011;37131;42.694;23.350;2022-09-09T02:40:29;250.10;;;59.33;;
51082;SDS011;37131;42.694;23.350;2022-09-09T02:42:55;251.15;;;59.65;;
51082;SDS011;37131;42.694;23.350;2022-09-09T02:45:23;252.93;;;61.85;;
51082;SDS011;37131;42.694;23.350;2022-09-09T02:50:35;249.88;;;59.00;;
51082;SDS011;37131;42.694;23.350;2022-09-09T02:53:23;251.13;;;59.55;;
51082;SDS011;37131;42.694;23.350;2022-09-09T02:55:58;250.98;;;59.90;;
51082;SDS011;37131;42.694;23.350;2022-09-09T02:58:29;251.37;;;59.33;;
51082;SDS011;37131;42.694;23.350;2022-09-09T03:00:55;252.65;;;59.38;;
51082;SDS011;37131;42.694;23.350;2022-09-09T03:03:22;250.48;;;59.22;;
51082;SDS011;37131;42.694;23.350;2022-09-09T03:05:48;250.95;;;59.78;;
51082;SDS011;37131;42.694;23.350;2022-09-09T03:08:14;252.70;;;59.72;;
51082;SDS011;37131;42.694;23.350;2022-09-09T03:10:39;251.18;;;58.95;;
51082;SDS011;37131;42.694;23.350;2022-09-09T03:13:05;250.02;;;59.28;;
51082;SDS011;37131;42.694;23.350;2022-09-09T03:15:31;251.90;;;59.83;;
51082;SDS011;37131;42.694;23.350;2022-09-09T03:17:57;251.73;;;59.33;;
51082;SDS011;37131;42.694;23.350;2022-09-09T03:20:24;250.90;;;59.00;;
51082;SDS011;37131;42.694;23.350;2022-09-09T03:22:51;251.18;;;58.20;;
51082;SDS011;37131;42.694;23.350;2022-09-09T03:25:17;251.25;;;58.38;;
51082;SDS011;37131;42.694;23.350;2022-09-09T03:27:43;249.80;;;58.33;;
51082;SDS011;37131;42.694;23.350;2022-09-09T03:30:08;251.55;;;58.55;;
51082;SDS011;37131;42.694;23.350;2022-09-09T03:32:34;252.52;;;58.67;;
51082;SDS011;37131;42.694;23.350;2022-09-09T03:34:59;250.18;;;58.40;;
51082;SDS011;37131;42.694;23.350;2022-09-09T03:37:25;253.57;;;60.72;;
51082;SDS011;37131;42.694;23.350;2022-09-09T03:39:50;251.95;;;59.47;;
51082;SDS011;37131;42.694;23.350;2022-09-09T03:42:16;252.75;;;59.15;;
51082;SDS011;37131;42.694;23.350;2022-09-09T03:44:45;255.07;;;61.10;;
51082;SDS011;37131;42.694;23.350;2022-09-09T03:47:24;252.98;;;59.45;;
51082;SDS011;37131;42.694;23.350;2022-09-09T03:49:49;252.27;;;59.15;;
51082;SDS011;37131;42.694;23.350;2022-09-09T03:52:15;249.85;;;59.20;;
51082;SDS011;37131;42.694;23.350;2022-09-09T03:54:41;250.98;;;58.22;;
51082;SDS011;37131;42.694;23.350;2022-09-09T03:57:07;251.27;;;58.85;;
51082;SDS011;37131;42.694;23.350;2022-09-09T03:59:34;254.50;;;60.28;;
51082;SDS011;37131;42.694;23.350;2022-09-09T04:02:00;252.30;;;57.95;;
51082;SDS011;37131;42.694;23.350;2022-09-09T04:04:26;249.52;;;58.47;;
51082;SDS011;37131;42.694;23.350;2022-09-09T04:06:52;250.52;;;58.50;;
51082;SDS011;37131;42.694;23.350;2022-09-09T04:09:18;252.93;;;58.92;;
51082;SDS011;37131;42.694;23.350;2022-09-09T04:11:43;250.32;;;57.83;;
51082;SDS011;37131;42.694;23.350;2022-09-09T04:14:08;252.93;;;59.75;;
51082;SDS011;37131;42.694;23.350;2022-09-09T04:16:34;252.45;;;60.20;;
51082;SDS011;37131;42.694;23.350;2022-09-09T04:19:03;252.45;;;59.30;;
51082;SDS011;37131;42.694;23.350;2022-09-09T04:21:32;258.33;;;62.95;;
51082;SDS011;37131;42.694;23.350;2022-09-09T04:23:58;256.88;;;63.58;;
51082;SDS011;37131;42.694;23.350;2022-09-09T04:26:23;261.38;;;64.78;;
51082;SDS011;37131;42.694;23.350;2022-09-09T04:28:49;260.40;;;64.25;;
51082;SDS011;37131;42.694;23.350;2022-09-09T04:31:19;253.80;;;61.03;;
51082;SDS011;37131;42.694;23.350;2022-09-09T04:33:47;251.95;;;59.95;;
51082;SDS011;37131;42.694;23.350;2022-09-09T04:36:14;251.57;;;59.88;;
51082;SDS011;37131;42.694;23.350;2022-09-09T04:38:40;250.75;;;59.33;;
51082;SDS011;37131;42.694;23.350;2022-09-09T04:41:05;252.70;;;59.10;;
51082;SDS011;37131;42.694;23.350;2022-09-09T04:43:32;250.63;;;58.63;;
51082;SDS011;37131;42.694;23.350;2022-09-09T04:45:57;250.57;;;58.55;;
51082;SDS011;37131;42.694;23.350;2022-09-09T04:48:26;249.73;;;59.05;;
51082;SDS011;37131;42.694;23.350;2022-09-09T04:53:20;248.80;;;58.35;;
51082;SDS011;37131;42.694;23.350;2022-09-09T04:55:47;250.38;;;59.30;;
51082;SDS011;37131;42.694;23.350;2022-09-09T04:58:12;251.90;;;59.75;;
51082;SDS011;37131;42.694;23.350;2022-09-09T05:00:38;250.75;;;58.97;;
51082;SDS011;37131;42.694;23.350;2022-09-09T05:03:06;250.15;;;60.65;;
51082;SDS011;37131;42.694;23.350;2022-09-09T05:05:34;252.57;;;59.72;;
51082;SDS011;37131;42.694;23.350;2022-09-09T05:08:06;251.82;;;60.40;;
51082;SDS011;37131;42.694;23.350;2022-09-09T05:10:34;249.52;;;60.65;;
51082;SDS011;37131;42.694;23.350;2022-09-09T05:13:02;251.23;;;60.90;;
51082;SDS011;37131;42.694;23.350;2022-09-09T05:15:27;253.00;;;60.80;;
51082;SDS011;37131;42.694;23.350;2022-09-09T05:17:56;252.77;;;61.67;;
51082;SDS011;37131;42.694;23.350;2022-09-09T05:20:24;251.52;;;60.45;;
51082;SDS011;37131;42.694;23.350;2022-09-09T05:22:52;250.18;;;60.60;;
51082;SDS011;37131;42.694;23.350;2022-09-09T05:25:18;248.80;;;59.45;;
51082;SDS011;37131;42.694;23.350;2022-09-09T05:27:44;250.60;;;59.83;;
51082;SDS011;37131;42.694;23.350;2022-09-09T05:30:11;251.52;;;60.67;;
51082;SDS011;37131;42.694;23.350;2022-09-09T05:32:36;248.85;;;60.22;;
51082;SDS011;37131;42.694;23.350;2022-09-09T05:35:02;249.02;;;59.72;;
51082;SDS011;37131;42.694;23.350;2022-09-09T05:37:28;253.73;;;61.45;;
51082;SDS011;37131;42.694;23.350;2022-09-09T05:39:55;250.57;;;60.95;;
51082;SDS011;37131;42.694;23.350;2022-09-09T05:42:20;252.88;;;61.80;;
51082;SDS011;37131;42.694;23.350;2022-09-09T05:44:46;253.77;;;60.15;;
51082;SDS011;37131;42.694;23.350;2022-09-09T05:47:11;250.73;;;60.03;;
51082;SDS011;37131;42.694;23.350;2022-09-09T05:49:36;249.95;;;60.85;;
51082;SDS011;37131;42.694;23.350;2022-09-09T05:52:02;249.27;;;61.15;;
51082;SDS011;37131;42.694;23.350;2022-09-09T05:54:28;253.93;;;63.97;;
51082;SDS011;37131;42.694;23.350;2022-09-09T05:56:54;250.90;;;61.75;;
51082;SDS011;37131;42.694;23.350;2022-09-09T05:59:20;250.40;;;62.55;;
51082;SDS011;37131;42.694;23.350;2022-09-09T06:01:48;251.63;;;63.30;;
51082;SDS011;37131;42.694;23.350;2022-09-09T06:04:13;252.73;;;63.40;;
51082;SDS011;37131;42.694;23.350;2022-09-09T06:06:39;252.70;;;62.72;;
51082;SDS011;37131;42.694;23.350;2022-09-09T06:09:05;250.82;;;61.45;;
51082;SDS011;37131;42.694;23.350;2022-09-09T06:11:34;249.68;;;61.95;;
51082;SDS011;37131;42.694;23.350;2022-09-09T06:14:01;249.27;;;61.80;;
51082;SDS011;37131;42.694;23.350;2022-09-09T06:16:28;249.30;;;61.47;;
51082;SDS011;37131;42.694;23.350;2022-09-09T06:18:54;248.85;;;61.63;;
51082;SDS011;37131;42.694;23.350;2022-09-09T06:21:25;249.73;;;62.15;;
51082;SDS011;37131;42.694;23.350;2022-09-09T06:23:51;248.48;;;61.97;;
51082;SDS011;37131;42.694;23.350;2022-09-09T06:28:43;251.32;;;63.20;;
51082;SDS011;37131;42.694;23.350;2022-09-09T06:31:11;249.50;;;62.75;;
51082;SDS011;37131;42.694;23.350;2022-09-09T06:33:38;251.05;;;62.35;;
51082;SDS011;37131;42.694;23.350;2022-09-09T06:36:13;250.55;;;63.75;;
51082;SDS011;37131;42.694;23.350;2022-09-09T06:38:40;251.50;;;63.10;;
51082;SDS011;37131;42.694;23.350;2022-09-09T06:41:07;248.52;;;64.13;;
51082;SDS011;37131;42.694;23.350;2022-09-09T06:43:34;248.90;;;64.05;;
51082;SDS011;37131;42.694;23.350;2022-09-09T06:46:04;252.82;;;66.43;;
51082;SDS011;37131;42.694;23.350;2022-09-09T06:48:31;253.40;;;67.50;;
51082;SDS011;37131;42.694;23.350;2022-09-09T06:51:04;254.98;;;68.57;;
51082;SDS011;37131;42.694;23.350;2022-09-09T06:53:37;241.82;;;69.03;;
51082;SDS011;37131;42.694;23.350;2022-09-09T06:58:37;236.77;;;71.22;;
51082;SDS011;37131;42.694;23.350;2022-09-09T07:01:14;230.60;;;70.75;;
51082;SDS011;37131;42.694;23.350;2022-09-09T07:03:44;233.80;;;72.50;;
51082;SDS011;37131;42.694;23.350;2022-09-09T07:06:14;233.93;;;72.10;;
51082;SDS011;37131;42.694;23.350;2022-09-09T07:08:42;230.25;;;72.07;;
51082;SDS011;37131;42.694;23.350;2022-09-09T07:11:08;234.98;;;73.60;;
51082;SDS011;37131;42.694;23.350;2022-09-09T07:13:34;229.05;;;73.82;;
51082;SDS011;37131;42.694;23.350;2022-09-09T07:16:10;228.27;;;74.32;;
51082;SDS011;37131;42.694;23.350;2022-09-09T07:18:37;225.57;;;74.18;;
51082;SDS011;37131;42.694;23.350;2022-09-09T07:21:04;226.50;;;74.57;;
51082;SDS011;37131;42.694;23.350;2022-09-09T07:23:30;230.45;;;75.55;;
51082;SDS011;37131;42.694;23.350;2022-09-09T07:25:56;231.48;;;76.95;;
51082;SDS011;37131;42.694;23.350;2022-09-09T07:28:23;230.38;;;76.40;;
51082;SDS011;37131;42.694;23.350;2022-09-09T07:30:53;233.52;;;77.68;;
51082;SDS011;37131;42.694;23.350;2022-09-09T07:33:19;237.50;;;80.05;;
51082;SDS011;37131;42.694;23.350;2022-09-09T07:35:45;236.90;;;78.55;;
51082;SDS011;37131;42.694;23.350;2022-09-09T07:38:10;236.77;;;78.80;;
51082;SDS011;37131;42.694;23.350;2022-09-09T07:40:36;238.80;;;80.28;;
51082;SDS011;37131;42.694;23.350;2022-09-09T07:43:02;236.23;;;79.40;;
51082;SDS011;37131;42.694;23.350;2022-09-09T07:45:27;240.93;;;82.18;;
51082;SDS011;37131;42.694;23.350;2022-09-09T07:47:58;239.52;;;80.60;;
51082;SDS011;37131;42.694;23.350;2022-09-09T07:50:23;240.68;;;82.60;;
51082;SDS011;37131;42.694;23.350;2022-09-09T07:52:52;238.35;;;81.97;;
51082;SDS011;37131;42.694;23.350;2022-09-09T07:55:18;235.90;;;82.32;;
51082;SDS011;37131;42.694;23.350;2022-09-09T07:57:45;240.48;;;83.68;;
51082;SDS011;37131;42.694;23.350;2022-09-09T08:00:11;240.02;;;82.70;;
51082;SDS011;37131;42.694;23.350;2022-09-09T08:02:36;241.63;;;83.15;;
51082;SDS011;37131;42.694;23.350;2022-09-09T08:05:02;242.23;;;82.57;;
51082;SDS011;37131;42.694;23.350;2022-09-09T08:07:27;248.13;;;83.97;;
51082;SDS011;37131;42.694;23.350;2022-09-09T08:09:53;247.23;;;84.53;;
51082;SDS011;37131;42.694;23.350;2022-09-09T08:12:20;247.80;;;85.55;;
51082;SDS011;37131;42.694;23.350;2022-09-09T08:14:46;250.32;;;85.43;;
51082;SDS011;37131;42.694;23.350;2022-09-09T08:17:13;248.30;;;85.20;;
51082;SDS011;37131;42.694;23.350;2022-09-09T08:19:38;250.23;;;86.82;;
51082;SDS011;37131;42.694;23.350;2022-09-09T08:22:04;248.60;;;86.40;;
51082;SDS011;37131;42.694;23.350;2022-09-09T08:24:29;247.07;;;86.22;;
51082;SDS011;37131;42.694;23.350;2022-09-09T08:26:55;248.70;;;86.78;;
51082;SDS011;37131;42.694;23.350;2022-09-09T08:29:21;256.08;;;87.88;;
51082;SDS011;37131;42.694;23.350;2022-09-09T08:31:51;259.45;;;88.03;;
51082;SDS011;37131;42.694;23.350;2022-09-09T08:34:19;258.15;;;88.65;;
51082;SDS011;37131;42.694;23.350;2022-09-09T08:36:46;260.80;;;90.25;;
51082;SDS011;37131;42.694;23.350;2022-09-09T08:39:14;262.13;;;92.13;;
51082;SDS011;37131;42.694;23.350;2022-09-09T08:50:22;260.67;;;92.88;;
51082;SDS011;37131;42.694;23.350;2022-09-09T08:53:02;261.13;;;93.70;;
51082;SDS011;37131;42.694;23.350;2022-09-09T08:58:35;261.58;;;93.30;;
51082;SDS011;37131;42.694;23.350;2022-09-09T09:03:50;260.90;;;96.88;;
51082;SDS011;37131;42.694;23.350;2022-09-09T09:11:57;260.50;;;96.38;;
51082;SDS011;37131;42.694;23.350;2022-09-09T09:14:26;261.25;;;98.40;;
51082;SDS011;37131;42.694;23.350;2022-09-09T09:17:02;249.32;;;88.38;;
51082;SDS011;37131;42.694;23.350;2022-09-09T09:19:32;247.95;;;87.25;;
51082;SDS011;37131;42.694;23.350;2022-09-09T09:27:34;248.27;;;90.03;;
51082;SDS011;37131;42.694;23.350;2022-09-09T09:30:05;249.55;;;88.57;;
51082;SDS011;37131;42.694;23.350;2022-09-09T09:32:40;249.38;;;89.70;;
51082;SDS011;37131;42.694;23.350;2022-09-09T09:35:13;248.48;;;88.28;;
51082;SDS011;37131;42.694;23.350;2022-09-09T09:37:40;245.00;;;87.65;;
51082;SDS011;37131;42.694;23.350;2022-09-09T09:40:12;246.73;;;87.95;;
51082;SDS011;37131;42.694;23.350;2022-09-09T09:42:47;244.88;;;88.80;;
51082;SDS011;37131;42.694;23.350;2022-09-09T09:45:28;245.70;;;89.00;;
51082;SDS011;37131;42.694;23.350;2022-09-09T09:47:58;247.02;;;90.45;;
51082;SDS011;37131;42.694;23.350;2022-09-09T09:50:28;245.88;;;91.68;;
51082;SDS011;37131;42.694;23.350;2022-09-09T09:53:00;245.55;;;90.72;;
51082;SDS011;37131;42.694;23.350;2022-09-09T09:55:29;245.75;;;92.43;;
51082;SDS011;37131;42.694;23.350;2022-09-09T09:58:03;247.23;;;93.15;;
51082;SDS011;37131;42.694;23.350;2022-09-09T10:00:30;246.98;;;93.35;;
51082;SDS011;37131;42.694;23.350;2022-09-09T10:02:57;249.90;;;95.63;;
51082;SDS011;37131;42.694;23.350;2022-09-09T10:05:25;248.95;;;92.80;;
51082;SDS011;37131;42.694;23.350;2022-09-09T10:16:25;249.82;;;91.63;;
51082;SDS011;37131;42.694;23.350;2022-09-09T10:19:14;246.77;;;91.22;;
51082;SDS011;37131;42.694;23.350;2022-09-09T10:21:52;246.60;;;91.75;;
51082;SDS011;37131;42.694;23.350;2022-09-09T10:27:24;246.10;;;92.00;;
51082;SDS011;37131;42.694;23.350;2022-09-09T10:35:33;245.93;;;92.78;;
51082;SDS011;37131;42.694;23.350;2022-09-09T10:38:11;252.82;;;89.65;;
51082;SDS011;37131;42.694;23.350;2022-09-09T10:40:42;244.35;;;89.97;;
51082;SDS011;37131;42.694;23.350;2022-09-09T10:55:02;246.85;;;89.72;;
51082;SDS011;37131;42.694;23.350;2022-09-09T10:57:42;246.68;;;91.30;;
51082;SDS011;37131;42.694;23.350;2022-09-09T11:02:51;245.65;;;90.13;;
51082;SDS011;37131;42.694;23.350;2022-09-09T11:05:27;244.45;;;89.25;;
51082;SDS011;37131;42.694;23.350;2022-09-09T11:08:09;245.23;;;89.38;;
51082;SDS011;37131;42.694;23.350;2022-09-09T11:18:46;247.25;;;90.70;;
51082;SDS011;37131;42.694;23.350;2022-09-09T11:21:16;244.23;;;89.32;;
51082;SDS011;37131;42.694;23.350;2022-09-09T11:23:57;244.63;;;89.70;;
51082;SDS011;37131;42.694;23.350;2022-09-09T11:26:35;245.35;;;89.10;;
51082;SDS011;37131;42.694;23.350;2022-09-09T11:32:17;254.63;;;90.72;;
51082;SDS011;37131;42.694;23.350;2022-09-09T11:40:36;244.77;;;89.95;;
51082;SDS011;37131;42.694;23.350;2022-09-09T11:43:09;245.30;;;90.93;;
51082;SDS011;37131;42.694;23.350;2022-09-09T11:45:38;246.98;;;91.38;;
51082;SDS011;37131;42.694;23.350;2022-09-09T11:48:20;246.02;;;91.22;;
51082;SDS011;37131;42.694;23.350;2022-09-09T11:50:57;245.35;;;89.40;;
51082;SDS011;37131;42.694;23.350;2022-09-09T11:53:24;248.05;;;91.10;;
51082;SDS011;37131;42.694;23.350;2022-09-09T11:56:00;245.20;;;92.85;;
51082;SDS011;37131;42.694;23.350;2022-09-09T11:58:26;245.68;;;91.93;;
51082;SDS011;37131;42.694;23.350;2022-09-09T12:00:57;245.68;;;91.63;;
51082;SDS011;37131;42.694;23.350;2022-09-09T12:03:43;246.82;;;93.47;;
51082;SDS011;37131;42.694;23.350;2022-09-09T12:08:50;247.07;;;92.35;;
51082;SDS011;37131;42.694;23.350;2022-09-09T12:11:26;247.52;;;92.97;;
51082;SDS011;37131;42.694;23.350;2022-09-09T12:13:56;247.40;;;95.65;;
51082;SDS011;37131;42.694;23.350;2022-09-09T12:16:35;247.60;;;93.97;;
51082;SDS011;37131;42.694;23.350;2022-09-09T12:19:19;246.23;;;94.47;;
51082;SDS011;37131;42.694;23.350;2022-09-09T12:21:53;245.98;;;93.50;;
51082;SDS011;37131;42.694;23.350;2022-09-09T12:24:33;244.75;;;93.45;;
51082;SDS011;37131;42.694;23.350;2022-09-09T12:27:34;244.15;;;94.57;;
51082;SDS011;37131;42.694;23.350;2022-09-09T12:30:19;250.30;;;97.95;;
51082;SDS011;37131;42.694;23.350;2022-09-09T12:32:46;250.48;;;100.05;;
51082;SDS011;37131;42.694;23.350;2022-09-09T12:35:20;248.80;;;101.72;;
51082;SDS011;37131;42.694;23.350;2022-09-09T12:37:52;251.02;;;100.20;;
51082;SDS011;37131;42.694;23.350;2022-09-09T12:42:54;246.45;;;96.63;;
51082;SDS011;37131;42.694;23.350;2022-09-09T12:45:21;247.00;;;97.95;;
51082;SDS011;37131;42.694;23.350;2022-09-09T12:48:07;254.90;;;98.00;;
51082;SDS011;37131;42.694;23.350;2022-09-09T12:50:37;246.25;;;95.28;;
51082;SDS011;37131;42.694;23.350;2022-09-09T12:53:09;245.20;;;94.78;;
51082;SDS011;37131;42.694;23.350;2022-09-09T12:55:48;246.10;;;96.07;;
51082;SDS011;37131;42.694;23.350;2022-09-09T12:58:44;249.63;;;94.05;;
51082;SDS011;37131;42.694;23.350;2022-09-09T13:01:18;243.65;;;95.63;;
51082;SDS011;37131;42.694;23.350;2022-09-09T13:03:47;247.93;;;94.30;;
51082;SDS011;37131;42.694;23.350;2022-09-09T13:06:17;244.00;;;96.18;;
51082;SDS011;37131;42.694;23.350;2022-09-09T13:08:47;245.20;;;98.43;;
51082;SDS011;37131;42.694;23.350;2022-09-09T13:11:14;243.30;;;95.28;;
51082;SDS011;37131;42.694;23.350;2022-09-09T13:13:50;249.55;;;98.35;;
51082;SDS011;37131;42.694;23.350;2022-09-09T13:16:22;244.40;;;97.03;;
51082;SDS011;37131;42.694;23.350;2022-09-09T13:18:51;241.77;;;95.85;;
51082;SDS011;37131;42.694;23.350;2022-09-09T13:21:18;242.73;;;97.18;;
51082;SDS011;37131;42.694;23.350;2022-09-09T13:23:48;247.00;;;97.70;;
51082;SDS011;37131;42.694;23.350;2022-09-09T13:26:25;244.20;;;97.68;;
51082;SDS011;37131;42.694;23.350;2022-09-09T13:28:52;242.13;;;95.50;;
51082;SDS011;37131;42.694;23.350;2022-09-09T13:31:23;244.27;;;97.03;;
51082;SDS011;37131;42.694;23.350;2022-09-09T13:33:58;243.48;;;96.60;;
51082;SDS011;37131;42.694;23.350;2022-09-09T13:36:27;242.35;;;94.50;;
51082;SDS011;37131;42.694;23.350;2022-09-09T13:38:56;243.18;;;97.13;;
51082;SDS011;37131;42.694;23.350;2022-09-09T13:41:34;245.88;;;95.57;;
51082;SDS011;37131;42.694;23.350;2022-09-09T13:44:02;244.65;;;97.80;;
51082;SDS011;37131;42.694;23.350;2022-09-09T13:51:35;243.88;;;96.15;;
51082;SDS011;37131;42.694;23.350;2022-09-09T13:54:06;244.98;;;95.90;;
51082;SDS011;37131;42.694;23.350;2022-09-09T13:56:34;245.13;;;96.70;;
51082;SDS011;37131;42.694;23.350;2022-09-09T13:59:01;246.52;;;96.78;;
51082;SDS011;37131;42.694;23.350;2022-09-09T14:01:27;245.48;;;95.10;;
51082;SDS011;37131;42.694;23.350;2022-09-09T14:03:53;243.65;;;93.72;;
51082;SDS011;37131;42.694;23.350;2022-09-09T14:06:19;244.55;;;94.20;;
51082;SDS011;37131;42.694;23.350;2022-09-09T14:08:46;245.00;;;94.70;;
51082;SDS011;37131;42.694;23.350;2022-09-09T14:11:13;243.10;;;95.60;;
51082;SDS011;37131;42.694;23.350;2022-09-09T14:13:39;242.50;;;97.55;;
51082;SDS011;37131;42.694;23.350;2022-09-09T14:16:05;243.25;;;97.18;;
51082;SDS011;37131;42.694;23.350;2022-09-09T14:18:30;244.10;;;97.35;;
51082;SDS011;37131;42.694;23.350;2022-09-09T14:20:56;245.63;;;98.20;;
51082;SDS011;37131;42.694;23.350;2022-09-09T14:23:23;240.98;;;97.68;;
51082;SDS011;37131;42.694;23.350;2022-09-09T14:25:49;248.95;;;98.97;;
51082;SDS011;37131;42.694;23.350;2022-09-09T14:28:15;244.38;;;98.57;;
51082;SDS011;37131;42.694;23.350;2022-09-09T14:30:41;242.10;;;96.45;;
51082;SDS011;37131;42.694;23.350;2022-09-09T14:33:10;248.88;;;102.03;;
51082;SDS011;37131;42.694;23.350;2022-09-09T14:35:37;243.70;;;98.13;;
51082;SDS011;37131;42.694;23.350;2022-09-09T14:38:03;241.57;;;95.57;;
51082;SDS011;37131;42.694;23.350;2022-09-09T14:40:29;240.77;;;93.43;;
51082;SDS011;37131;42.694;23.350;2022-09-09T14:42:55;240.18;;;93.63;;
51082;SDS011;37131;42.694;23.350;2022-09-09T14:45:21;243.70;;;96.13;;
51082;SDS011;37131;42.694;23.350;2022-09-09T14:47:49;241.57;;;93.93;;
51082;SDS011;37131;42.694;23.350;2022-09-09T14:50:15;244.32;;;92.82;;
51082;SDS011;37131;42.694;23.350;2022-09-09T14:52:41;243.25;;;94.80;;
51082;SDS011;37131;42.694;23.350;2022-09-09T14:55:07;244.32;;;93.07;;
51082;SDS011;37131;42.694;23.350;2022-09-09T14:57:32;243.82;;;93.80;;
51082;SDS011;37131;42.694;23.350;2022-09-09T14:59:59;243.65;;;92.55;;
51082;SDS011;37131;42.694;23.350;2022-09-09T15:02:25;241.95;;;92.22;;
51082;SDS011;37131;42.694;23.350;2022-09-09T15:04:50;241.47;;;91.73;;
51082;SDS011;37131;42.694;23.350;2022-09-09T15:07:17;251.15;;;98.90;;
51082;SDS011;37131;42.694;23.350;2022-09-09T15:09:44;243.30;;;93.43;;
51082;SDS011;37131;42.694;23.350;2022-09-09T15:12:12;248.10;;;95.35;;
51082;SDS011;37131;42.694;23.350;2022-09-09T15:14:38;240.93;;;90.85;;
51082;SDS011;37131;42.694;23.350;2022-09-09T15:17:03;240.13;;;89.97;;
51082;SDS011;37131;42.694;23.350;2022-09-09T15:19:29;243.43;;;92.57;;
51082;SDS011;37131;42.694;23.350;2022-09-09T15:21:54;242.23;;;90.72;;
51082;SDS011;37131;42.694;23.350;2022-09-09T15:24:20;242.60;;;89.13;;
51082;SDS011;37131;42.694;23.350;2022-09-09T15:26:46;242.20;;;88.30;;
51082;SDS011;37131;42.694;23.350;2022-09-09T15:29:11;248.98;;;89.05;;
51082;SDS011;37131;42.694;23.350;2022-09-09T15:31:37;247.52;;;92.40;;
51082;SDS011;37131;42.694;23.350;2022-09-09T15:34:06;242.32;;;87.50;;
51082;SDS011;37131;42.694;23.350;2022-09-09T15:39:02;247.55;;;91.80;;
51082;SDS011;37131;42.694;23.350;2022-09-09T15:41:30;245.90;;;88.20;;
51082;SDS011;37131;42.694;23.350;2022-09-09T15:44:01;244.15;;;89.50;;
51082;SDS011;37131;42.694;23.350;2022-09-09T15:46:39;244.55;;;89.85;;
51082;SDS011;37131;42.694;23.350;2022-09-09T15:51:39;246.23;;;89.50;;
51082;SDS011;37131;42.694;23.350;2022-09-09T15:54:06;244.13;;;89.60;;
51082;SDS011;37131;42.694;23.350;2022-09-09T15:56:32;243.48;;;88.38;;
51082;SDS011;37131;42.694;23.350;2022-09-09T15:58:57;245.27;;;88.90;;
51082;SDS011;37131;42.694;23.350;2022-09-09T16:01:24;244.90;;;87.60;;
51082;SDS011;37131;42.694;23.350;2022-09-09T16:03:52;242.88;;;87.72;;
51082;SDS011;37131;42.694;23.350;2022-09-09T16:06:21;245.88;;;86.93;;
51082;SDS011;37131;42.694;23.350;2022-09-09T16:08:49;241.85;;;87.78;;
51082;SDS011;37131;42.694;23.350;2022-09-09T16:13:47;243.93;;;86.57;;
51082;SDS011;37131;42.694;23.350;2022-09-09T16:16:15;245.82;;;85.82;;
51082;SDS011;37131;42.694;23.350;2022-09-09T16:18:45;243.15;;;85.75;;
51082;SDS011;37131;42.694;23.350;2022-09-09T16:21:16;243.63;;;86.40;;
51082;SDS011;37131;42.694;23.350;2022-09-09T16:23:44;242.98;;;86.93;;
51082;SDS011;37131;42.694;23.350;2022-09-09T16:26:11;247.02;;;85.45;;
51082;SDS011;37131;42.694;23.350;2022-09-09T16:28:39;246.65;;;85.07;;
51082;SDS011;37131;42.694;23.350;2022-09-09T16:31:05;246.85;;;87.35;;
51082;SDS011;37131;42.694;23.350;2022-09-09T16:33:35;248.32;;;85.38;;
51082;SDS011;37131;42.694;23.350;2022-09-09T16:36:05;244.20;;;81.80;;
51082;SDS011;37131;42.694;23.350;2022-09-09T16:38:35;243.77;;;80.38;;